< < Back
Terminal Aerodrome Forecast


Current Version              Previous Versions:   1  2  3  4  5  6  7  8  9  

Terminal Aerodrome Forecast

274
FTUS44 KBMX 250520
TAFMGM
TAF
KMGM 250520Z 2506/2606 00000KT P6SM FEW250
     FM251700 15006KT P6SM FEW250=

Latest METAR

861
SAUS80 KWBC 252000
MTRMGM
METAR KMGM 251953Z 17007KT 140V220 10SM CLR 32/15 A3017 RMK AO2 SLP214
T03170150


USA.gov is the U.S. government's official web portal to all federal, state and local government web resources and services.